Time;durP1;ratioP1;P1;durP2;ratioP2;P2;SDS_P1;SDS_P2;PMS_P1;PMS_P2;Temp;Humidity;BMP_temperature;BMP_pressure;BME280_temperature;BME280_humidity;BME280_pressure;Samples;Min_cycle;Max_cycle;Signal;HPM_P1;HPM_P2
2022/08/07 00:00:55;;;;;;;2.85;2.38;;;;;;;;;;5046664;28;20096;-74
2022/08/07 00:03:21;;;;;;;2.50;1.83;;;;;;;;;;5051168;28;20462;-74
2022/08/07 00:05:47;;;;;;;2.70;1.95;;;;;;;;;;5049210;28;20036;-75
2022/08/07 00:08:12;;;;;;;2.78;2.33;;;;;;;;;;5013412;28;20029;-75
2022/08/07 00:10:37;;;;;;;2.83;2.38;;;;;;;;;;4995186;28;20080;-74
2022/08/07 00:13:04;;;;;;;3.72;2.00;;;;;;;;;;5027917;28;20036;-74
2022/08/07 00:15:30;;;;;;;4.20;2.00;;;;;;;;;;5049957;28;20025;-75
2022/08/07 00:17:55;;;;;;;4.35;2.38;;;;;;;;;;5014497;28;20074;-72
2022/08/07 00:20:20;;;;;;;1.90;1.80;;;;;;;;;;5028888;28;20355;-72
2022/08/07 00:22:45;;;;;;;2.55;2.08;;;;;;;;;;5029659;28;20031;-75
2022/08/07 00:25:11;;;;;;;2.15;1.95;;;;;;;;;;5013004;28;20040;-74
2022/08/07 00:27:36;;;;;;;3.65;2.35;;;;;;;;;;5030907;28;20025;-74
2022/08/07 00:30:03;;;;;;;3.25;2.05;;;;;;;;;;5030905;28;20108;-75
2022/08/07 00:32:28;;;;;;;2.13;1.92;;;;;;;;;;5048490;28;20083;-75
2022/08/07 00:34:54;;;;;;;2.35;1.60;;;;;;;;;;5010381;28;20029;-75
2022/08/07 00:37:19;;;;;;;3.10;1.92;;;;;;;;;;5011933;28;20514;-75
2022/08/07 00:39:44;;;;;;;2.38;1.80;;;;;;;;;;5047763;28;20021;-75
2022/08/07 00:42:09;;;;;;;2.85;1.88;;;;;;;;;;5028761;28;20033;-75
2022/08/07 00:44:36;;;;;;;2.75;2.03;;;;;;;;;;5048963;28;20664;-75
2022/08/07 00:47:01;;;;;;;3.20;1.83;;;;;;;;;;5035387;28;20112;-74
2022/08/07 00:49:27;;;;;;;1.55;1.38;;;;;;;;;;5034095;28;20104;-74
2022/08/07 00:51:52;;;;;;;2.72;1.75;;;;;;;;;;5029581;28;20057;-74
2022/08/07 00:54:18;;;;;;;1.58;1.48;;;;;;;;;;5035639;28;20083;-74
2022/08/07 00:56:43;;;;;;;2.67;1.85;;;;;;;;;;5032968;28;20387;-74
2022/08/07 00:59:09;;;;;;;2.92;1.83;;;;;;;;;;5052908;28;20020;-74
2022/08/07 01:01:34;;;;;;;4.85;2.20;;;;;;;;;;5032977;28;20017;-74
2022/08/07 01:04:03;;;;;;;2.45;2.10;;;;;;;;;;5063142;28;20052;-74
2022/08/07 01:06:29;;;;;;;2.25;1.63;;;;;;;;;;5065477;28;20447;-74
2022/08/07 01:08:54;;;;;;;2.47;1.80;;;;;;;;;;5072133;28;20055;-74
2022/08/07 01:11:20;;;;;;;2.70;1.73;;;;;;;;;;5071775;28;20028;-74
2022/08/07 01:13:45;;;;;;;2.38;1.60;;;;;;;;;;5070262;28;20367;-74
2022/08/07 01:16:11;;;;;;;2.08;1.13;;;;;;;;;;5072213;28;20016;-74
2022/08/07 01:18:36;;;;;;;2.00;1.13;;;;;;;;;;5071580;28;20023;-74
2022/08/07 01:21:23;;;;;;;3.97;1.00;;;;;;;;;;5050506;28;20024;-74
2022/08/07 01:23:49;;;;;;;1.48;1.00;;;;;;;;;;5074107;28;20033;-74
2022/08/07 01:26:15;;;;;;;0.90;0.80;;;;;;;;;;5073294;28;20025;-74
2022/08/07 01:28:41;;;;;;;2.05;0.65;;;;;;;;;;5070315;28;20028;-74
2022/08/07 01:31:07;;;;;;;1.67;0.80;;;;;;;;;;5071401;28;20073;-74
2022/08/07 01:33:33;;;;;;;0.80;0.75;;;;;;;;;;5069165;28;20036;-74
2022/08/07 01:35:59;;;;;;;1.08;0.60;;;;;;;;;;5071400;28;20439;-75
2022/08/07 01:38:24;;;;;;;0.90;0.60;;;;;;;;;;5070779;28;20017;-74
2022/08/07 01:40:50;;;;;;;0.85;0.70;;;;;;;;;;5071392;28;20040;-74
2022/08/07 01:43:15;;;;;;;2.50;0.70;;;;;;;;;;5070358;28;20024;-72
2022/08/07 01:45:41;;;;;;;0.85;0.60;;;;;;;;;;5068410;28;20036;-74
2022/08/07 01:48:07;;;;;;;1.08;0.60;;;;;;;;;;5071991;28;20375;-74
2022/08/07 01:50:34;;;;;;;0.90;0.60;;;;;;;;;;5070179;28;20016;-74
2022/08/07 01:53:01;;;;;;;1.23;0.60;;;;;;;;;;5070402;28;20032;-74
2022/08/07 01:55:28;;;;;;;1.10;0.40;;;;;;;;;;5070403;28;20020;-72
2022/08/07 01:57:56;;;;;;;1.33;0.50;;;;;;;;;;5072575;28;20048;-72
2022/08/07 02:00:24;;;;;;;1.08;0.50;;;;;;;;;;5071607;28;20021;-72
2022/08/07 02:02:52;;;;;;;0.93;0.55;;;;;;;;;;5062346;28;20099;-72
2022/08/07 02:05:24;;;;;;;1.08;0.63;;;;;;;;;;5049892;28;20686;-73
2022/08/07 02:07:51;;;;;;;1.55;0.85;;;;;;;;;;5045816;28;20060;-73
2022/08/07 02:10:17;;;;;;;3.38;0.68;;;;;;;;;;5051091;28;20032;-73
2022/08/07 02:12:44;;;;;;;1.08;0.40;;;;;;;;;;5031075;28;20036;-73
2022/08/07 02:15:10;;;;;;;1.55;0.32;;;;;;;;;;5051476;28;20028;-73
2022/08/07 02:17:36;;;;;;;1.90;0.63;;;;;;;;;;5052603;28;20025;-73
2022/08/07 02:20:02;;;;;;;0.95;0.43;;;;;;;;;;5032484;28;20021;-73
2022/08/07 02:22:28;;;;;;;1.27;0.40;;;;;;;;;;5032099;28;20040;-73
2022/08/07 02:24:54;;;;;;;3.20;0.55;;;;;;;;;;5047457;28;20029;-72
2022/08/07 02:27:21;;;;;;;1.05;0.50;;;;;;;;;;5052334;28;20032;-73
2022/08/07 02:29:48;;;;;;;0.60;0.32;;;;;;;;;;5051573;28;20132;-73
2022/08/07 02:32:15;;;;;;;1.30;0.40;;;;;;;;;;5032753;28;20021;-73
2022/08/07 02:34:41;;;;;;;0.85;0.35;;;;;;;;;;5048129;28;20475;-73
2022/08/07 02:37:07;;;;;;;1.38;0.35;;;;;;;;;;5050002;28;20447;-73
2022/08/07 02:39:34;;;;;;;0.47;0.47;;;;;;;;;;5052119;28;20025;-73
2022/08/07 02:42:00;;;;;;;1.15;0.50;;;;;;;;;;5049023;28;20471;-73
2022/08/07 02:44:26;;;;;;;1.08;0.50;;;;;;;;;;5045866;28;21267;-73
2022/08/07 02:46:53;;;;;;;0.85;0.30;;;;;;;;;;5033889;28;20116;-73
2022/08/07 02:49:18;;;;;;;1.55;0.55;;;;;;;;;;5034711;28;20124;-73
2022/08/07 02:51:45;;;;;;;1.70;0.40;;;;;;;;;;5048316;28;20458;-73
2022/08/07 02:54:11;;;;;;;0.93;0.47;;;;;;;;;;5047614;28;20074;-73
2022/08/07 02:56:38;;;;;;;0.80;0.73;;;;;;;;;;5015067;28;21256;-73
2022/08/07 02:59:08;;;;;;;2.17;0.60;;;;;;;;;;5052573;28;20024;-73
2022/08/07 03:01:35;;;;;;;0.90;0.55;;;;;;;;;;5049424;28;20096;-73
2022/08/07 03:04:01;;;;;;;1.02;0.40;;;;;;;;;;5050245;28;20106;-73
2022/08/07 03:06:26;;;;;;;1.75;0.60;;;;;;;;;;5047824;28;20468;-73
2022/08/07 03:08:52;;;;;;;0.52;0.35;;;;;;;;;;5050689;28;20455;-73
2022/08/07 03:11:19;;;;;;;0.80;0.40;;;;;;;;;;5049085;28;20174;-73
2022/08/07 03:13:44;;;;;;;0.60;0.40;;;;;;;;;;5008017;28;20025;-73
2022/08/07 03:16:10;;;;;;;1.05;0.60;;;;;;;;;;5049847;28;20017;-73
2022/08/07 03:18:35;;;;;;;0.88;0.47;;;;;;;;;;5033728;28;20111;-73
2022/08/07 03:21:01;;;;;;;0.80;0.73;;;;;;;;;;5029818;28;20032;-73
2022/08/07 03:23:26;;;;;;;2.00;0.40;;;;;;;;;;5030890;28;20029;-73
2022/08/07 03:25:52;;;;;;;0.90;0.50;;;;;;;;;;5031077;28;20132;-73
2022/08/07 03:28:18;;;;;;;2.30;0.47;;;;;;;;;;5032734;28;20031;-73
2022/08/07 03:30:44;;;;;;;1.60;0.50;;;;;;;;;;5032653;28;20040;-73
2022/08/07 03:33:09;;;;;;;0.85;0.40;;;;;;;;;;5048783;28;20028;-73
2022/08/07 03:35:35;;;;;;;0.60;0.30;;;;;;;;;;5025808;28;20040;-73
2022/08/07 03:38:02;;;;;;;1.40;0.50;;;;;;;;;;5031228;28;20049;-73
2022/08/07 03:40:28;;;;;;;0.82;0.50;;;;;;;;;;5050456;28;20079;-73
2022/08/07 03:42:54;;;;;;;0.90;0.40;;;;;;;;;;5030907;28;20025;-74
2022/08/07 03:45:20;;;;;;;0.55;0.40;;;;;;;;;;5047977;28;20452;-73
2022/08/07 03:47:45;;;;;;;0.40;0.30;;;;;;;;;;5029238;28;20021;-73
2022/08/07 03:50:11;;;;;;;1.08;0.50;;;;;;;;;;5025904;28;20031;-74
2022/08/07 03:52:36;;;;;;;1.33;0.40;;;;;;;;;;5044295;28;20025;-73
2022/08/07 03:55:02;;;;;;;1.42;0.30;;;;;;;;;;5032639;28;20067;-74
2022/08/07 03:57:29;;;;;;;0.70;0.40;;;;;;;;;;5030394;28;20029;-73
2022/08/07 03:59:54;;;;;;;3.40;0.50;;;;;;;;;;5045464;28;20037;-73
2022/08/07 04:02:20;;;;;;;0.82;0.40;;;;;;;;;;5047761;28;20785;-74
2022/08/07 04:04:46;;;;;;;0.98;0.30;;;;;;;;;;5051156;28;20029;-74
2022/08/07 04:07:11;;;;;;;1.80;0.32;;;;;;;;;;5047753;28;20517;-74
2022/08/07 04:09:38;;;;;;;0.70;0.50;;;;;;;;;;5050494;28;20068;-73
2022/08/07 04:12:04;;;;;;;0.50;0.50;;;;;;;;;;5048745;28;20090;-73
2022/08/07 04:14:30;;;;;;;1.48;0.32;;;;;;;;;;5051397;28;20029;-74
2022/08/07 04:16:55;;;;;;;0.40;0.38;;;;;;;;;;5028965;28;20048;-74
2022/08/07 04:19:21;;;;;;;2.00;0.40;;;;;;;;;;5016649;28;20071;-74
2022/08/07 04:21:46;;;;;;;1.10;0.40;;;;;;;;;;5050241;28;20055;-73
2022/08/07 04:24:12;;;;;;;0.43;0.43;;;;;;;;;;5052443;28;20017;-73
2022/08/07 04:26:38;;;;;;;0.77;0.50;;;;;;;;;;5035273;28;20175;-74
2022/08/07 04:29:05;;;;;;;1.10;0.40;;;;;;;;;;5053177;28;20467;-73
2022/08/07 04:31:30;;;;;;;1.25;0.40;;;;;;;;;;5034303;28;20029;-73
2022/08/07 04:33:56;;;;;;;1.27;0.35;;;;;;;;;;5053543;28;20029;-73
2022/08/07 04:36:21;;;;;;;0.30;0.30;;;;;;;;;;5034237;28;20321;-73
2022/08/07 04:38:46;;;;;;;2.25;0.30;;;;;;;;;;5032233;28;20025;-73
2022/08/07 04:41:12;;;;;;;1.08;0.38;;;;;;;;;;5035372;28;20025;-73
2022/08/07 04:43:38;;;;;;;1.02;0.30;;;;;;;;;;5035204;28;20480;-73
2022/08/07 04:46:07;;;;;;;0.65;0.40;;;;;;;;;;5032929;28;20112;-73
2022/08/07 04:48:52;;;;;;;1.02;0.30;;;;;;;;;;5036059;28;20033;-73
2022/08/07 04:51:27;;;;;;;0.75;0.20;;;;;;;;;;5046921;28;20044;-73
2022/08/07 04:53:52;;;;;;;;;;;;;;;;;;5031879;28;20029;-74
2022/08/07 04:56:25;;;;;;;1.52;0.50;;;;;;;;;;5051260;28;19912;-74
2022/08/07 04:58:58;;;;;;;0.77;0.50;;;;;;;;;;5050858;28;20043;-73
2022/08/07 05:01:42;;;;;;;1.00;0.20;;;;;;;;;;5048750;28;20021;-73
2022/08/07 05:04:26;;;;;;;0.80;0.25;;;;;;;;;;5065116;28;20052;-73
2022/08/07 05:06:51;;;;;;;1.13;0.30;;;;;;;;;;5070505;28;20035;-74
2022/08/07 05:09:23;;;;;;;0.40;0.30;;;;;;;;;;5069437;28;20024;-74
2022/08/07 05:11:50;;;;;;;1.92;0.30;;;;;;;;;;5066765;28;20032;-74
2022/08/07 05:14:21;;;;;;;1.08;0.28;;;;;;;;;;5064365;28;20051;-74
2022/08/07 05:16:47;;;;;;;1.92;0.30;;;;;;;;;;5067828;28;20008;-74
2022/08/07 05:19:16;;;;;;;0.60;0.30;;;;;;;;;;5068653;28;20020;-74
2022/08/07 05:21:47;;;;;;;1.17;0.50;;;;;;;;;;5057820;28;20021;-74
2022/08/07 05:24:15;;;;;;;0.70;0.40;;;;;;;;;;5067116;28;20020;-74
2022/08/07 05:26:42;;;;;;;0.50;0.30;;;;;;;;;;5064658;28;20479;-74
2022/08/07 05:29:08;;;;;;;0.20;0.20;;;;;;;;;;5062161;28;20433;-74
2022/08/07 05:31:40;;;;;;;0.57;0.30;;;;;;;;;;5057117;28;20017;-74
2022/08/07 05:34:06;;;;;;;0.82;0.30;;;;;;;;;;5061609;28;20029;-74
2022/08/07 05:36:32;;;;;;;1.05;0.30;;;;;;;;;;5063894;28;20390;-74
2022/08/07 05:38:58;;;;;;;0.40;0.20;;;;;;;;;;5064242;28;20012;-73
2022/08/07 05:41:24;;;;;;;1.02;0.30;;;;;;;;;;5061718;28;20021;-74
2022/08/07 05:43:51;;;;;;;0.60;0.22;;;;;;;;;;5063843;28;20332;-74
2022/08/07 05:46:18;;;;;;;0.60;0.30;;;;;;;;;;5064855;28;20036;-74
2022/08/07 05:48:44;;;;;;;0.35;0.25;;;;;;;;;;5061622;28;20487;-74
2022/08/07 05:51:09;;;;;;;0.50;0.20;;;;;;;;;;5061913;28;20067;-74
2022/08/07 05:53:35;;;;;;;0.57;0.20;;;;;;;;;;5046492;28;20032;-74
2022/08/07 05:56:01;;;;;;;0.55;0.22;;;;;;;;;;5065024;28;20383;-74
2022/08/07 05:58:26;;;;;;;0.50;0.28;;;;;;;;;;5046992;28;20116;-74
2022/08/07 06:00:52;;;;;;;0.93;0.22;;;;;;;;;;5056281;28;20115;-74
2022/08/07 06:03:18;;;;;;;0.70;0.20;;;;;;;;;;5053489;28;20063;-74
2022/08/07 06:05:48;;;;;;;1.40;0.47;;;;;;;;;;5047718;28;20017;-74
2022/08/07 06:08:14;;;;;;;1.33;0.40;;;;;;;;;;5021951;28;20036;-74
2022/08/07 06:10:40;;;;;;;0.47;0.32;;;;;;;;;;5036147;28;20052;-74
2022/08/07 06:13:05;;;;;;;1.20;0.30;;;;;;;;;;5042708;28;20056;-74
2022/08/07 06:15:33;;;;;;;0.60;0.20;;;;;;;;;;5043879;28;20407;-74
2022/08/07 06:17:59;;;;;;;0.70;0.20;;;;;;;;;;5042930;28;20021;-74
2022/08/07 06:20:24;;;;;;;0.50;0.22;;;;;;;;;;5039457;28;20472;-74
2022/08/07 06:22:51;;;;;;;0.57;0.30;;;;;;;;;;5042907;28;20032;-74
2022/08/07 06:25:16;;;;;;;1.25;0.22;;;;;;;;;;5042711;28;20078;-74
2022/08/07 06:27:41;;;;;;;0.43;0.20;;;;;;;;;;5003850;28;20021;-74
2022/08/07 06:30:07;;;;;;;0.47;0.20;;;;;;;;;;5042887;28;20152;-74
2022/08/07 06:32:32;;;;;;;0.40;0.20;;;;;;;;;;5044603;28;20040;-74
2022/08/07 06:35:00;;;;;;;0.93;0.20;;;;;;;;;;5023186;28;20025;-73
2022/08/07 06:37:26;;;;;;;1.20;0.20;;;;;;;;;;5023707;28;20108;-74
2022/08/07 06:39:52;;;;;;;0.80;0.30;;;;;;;;;;5022958;28;20140;-74
2022/08/07 06:42:23;;;;;;;0.60;0.20;;;;;;;;;;5036084;28;20103;-73
2022/08/07 06:44:49;;;;;;;1.20;0.20;;;;;;;;;;5043228;28;21310;-74
2022/08/07 06:47:15;;;;;;;2.22;0.28;;;;;;;;;;5043256;28;20506;-74
2022/08/07 06:49:40;;;;;;;0.77;0.30;;;;;;;;;;5045204;28;20028;-75
2022/08/07 06:52:08;;;;;;;1.08;0.30;;;;;;;;;;5007256;28;20021;-75
2022/08/07 06:54:33;;;;;;;0.35;0.10;;;;;;;;;;5021502;28;20025;-76
2022/08/07 06:56:59;;;;;;;4.97;0.20;;;;;;;;;;5042162;28;20013;-75
2022/08/07 06:59:32;;;;;;;0.55;0.20;;;;;;;;;;5042883;28;20212;-75
2022/08/07 07:01:57;;;;;;;3.15;0.30;;;;;;;;;;5033117;28;20021;-74
2022/08/07 07:04:23;;;;;;;1.20;0.20;;;;;;;;;;5054007;28;20044;-75
2022/08/07 07:06:49;;;;;;;0.28;0.20;;;;;;;;;;5061740;28;20020;-75
2022/08/07 07:09:15;;;;;;;0.30;0.13;;;;;;;;;;5060335;28;20040;-74
2022/08/07 07:11:43;;;;;;;0.65;0.20;;;;;;;;;;5061310;28;20102;-74
2022/08/07 07:14:09;;;;;;;0.60;0.13;;;;;;;;;;5061810;28;20479;-75
2022/08/07 07:16:37;;;;;;;2.95;0.20;;;;;;;;;;5055988;28;20047;-74
2022/08/07 07:19:03;;;;;;;0.40;0.13;;;;;;;;;;5054714;28;20024;-75
2022/08/07 07:21:31;;;;;;;0.80;0.10;;;;;;;;;;5058394;28;20086;-74
2022/08/07 07:23:57;;;;;;;0.10;0.10;;;;;;;;;;5060937;28;20479;-74
2022/08/07 07:26:22;;;;;;;1.90;0.20;;;;;;;;;;5052449;28;21263;-75
2022/08/07 07:28:52;;;;;;;1.30;0.20;;;;;;;;;;5057262;28;20028;-74
2022/08/07 07:31:20;;;;;;;1.27;0.10;;;;;;;;;;5058130;28;20024;-75
2022/08/07 07:33:47;;;;;;;1.75;0.10;;;;;;;;;;5051428;28;20025;-74
2022/08/07 07:36:12;;;;;;;0.63;0.10;;;;;;;;;;5052928;28;20458;-74
2022/08/07 07:38:39;;;;;;;1.58;0.20;;;;;;;;;;5061398;28;20044;-74
2022/08/07 07:41:06;;;;;;;1.05;0.20;;;;;;;;;;5068640;28;20537;-74
2022/08/07 07:43:32;;;;;;;1.02;0.20;;;;;;;;;;5064671;28;20020;-74
2022/08/07 07:45:59;;;;;;;0.65;0.17;;;;;;;;;;5068066;28;20027;-74
2022/08/07 07:48:25;;;;;;;0.30;0.10;;;;;;;;;;5057830;28;20368;-75
2022/08/07 07:50:53;;;;;;;0.47;0.10;;;;;;;;;;5059013;28;20063;-75
2022/08/07 07:53:19;;;;;;;0.80;0.10;;;;;;;;;;5060065;28;20033;-75
2022/08/07 07:55:44;;;;;;;1.85;0.20;;;;;;;;;;5041753;28;20115;-75
2022/08/07 07:58:10;;;;;;;1.48;0.10;;;;;;;;;;5059672;28;20111;-75
2022/08/07 08:00:36;;;;;;;1.90;0.10;;;;;;;;;;5060282;28;20043;-75
2022/08/07 08:03:04;;;;;;;0.45;0.10;;;;;;;;;;5058975;28;20047;-75
2022/08/07 08:05:31;;;;;;;2.17;0.10;;;;;;;;;;5057990;28;20047;-75
2022/08/07 08:07:56;;;;;;;0.22;0.10;;;;;;;;;;5057989;28;20024;-75
2022/08/07 08:10:21;;;;;;;1.20;0.70;;;;;;;;;;5056219;28;20052;-74
2022/08/07 08:12:47;;;;;;;0.35;0.10;;;;;;;;;;5060853;28;20428;-75
2022/08/07 08:15:13;;;;;;;1.05;0.10;;;;;;;;;;5059134;28;20032;-74
2022/08/07 08:17:39;;;;;;;1.17;0.05;;;;;;;;;;5057091;28;20510;-75
2022/08/07 08:20:06;;;;;;;1.00;0.08;;;;;;;;;;5054542;28;20020;-75
2022/08/07 08:28:05;;;;;;;;;;;;;;;;;;5060083;28;20007;-74
2022/08/07 08:30:31;;;;;;;;;;;;;;;;;;5056678;28;19943;-74
2022/08/07 08:32:56;;;;;;;;;;;;;;;;;;5060832;28;20268;-75
2022/08/07 08:35:21;;;;;;;;;;;;;;;;;;5068142;28;19952;-75
2022/08/07 08:37:46;;;;;;;;;;;;;;;;;;5060442;28;19939;-75
2022/08/07 08:40:19;;;;;;;0.90;0.10;;;;;;;;;;5059174;28;20787;-75
2022/08/07 08:42:54;;;;;;;0.43;0.08;;;;;;;;;;5058466;28;20025;-75
2022/08/07 08:45:27;;;;;;;1.35;0.52;;;;;;;;;;5062181;28;20024;-75
2022/08/07 08:48:11;;;;;;;0.20;0.10;;;;;;;;;;5061001;28;20025;-76
2022/08/07 08:50:43;;;;;;;0.30;0.00;;;;;;;;;;5057514;28;20035;-75
2022/08/07 08:53:25;;;;;;;2.85;0.10;;;;;;;;;;5057342;28;20021;-76
2022/08/07 08:55:53;;;;;;;1.20;0.10;;;;;;;;;;5061344;28;20020;-76
2022/08/07 08:58:18;;;;;;;0.40;0.00;;;;;;;;;;5067909;28;20086;-76
2022/08/07 09:00:48;;;;;;;0.20;0.10;;;;;;;;;;5068061;28;20462;-76
2022/08/07 09:03:13;;;;;;;0.43;0.00;;;;;;;;;;5068691;28;20372;-75
2022/08/07 09:05:54;;;;;;;0.43;0.05;;;;;;;;;;5062768;28;20929;-76
2022/08/07 09:08:29;;;;;;;0.30;0.00;;;;;;;;;;5068116;28;20454;-76
2022/08/07 09:10:54;;;;;;;;;;;;;;;;;;5071760;28;20024;-76
2022/08/07 09:13:55;;;;;;;2.50;0.40;;;;;;;;;;5072915;28;20385;-75
2022/08/07 09:16:27;;;;;;;0.28;0.10;;;;;;;;;;5009372;28;20030;-75
2022/08/07 09:19:01;;;;;;;0.50;0.10;;;;;;;;;;5010321;28;20096;-76
2022/08/07 09:21:26;;;;;;;1.13;0.10;;;;;;;;;;5010236;28;20030;-75
2022/08/07 09:23:58;;;;;;;0.30;0.10;;;;;;;;;;5017712;28;20504;-75
2022/08/07 09:26:43;;;;;;;1.15;0.20;;;;;;;;;;5005543;28;20053;-76
2022/08/07 09:29:14;;;;;;;0.22;0.10;;;;;;;;;;4994844;28;20022;-75
2022/08/07 09:31:48;;;;;;;0.00;0.00;;;;;;;;;;4993146;28;20224;-75
2022/08/07 09:34:16;;;;;;;0.38;0.10;;;;;;;;;;5001283;28;20110;-75
2022/08/07 09:37:05;;;;;;;0.40;0.10;;;;;;;;;;5010391;28;20048;-75
2022/08/07 09:39:30;;;;;;;;;;;;;;;;;;5002647;28;20120;-76
2022/08/07 09:41:55;;;;;;;;;;;;;;;;;;4984755;28;19920;-76
2022/08/07 09:44:20;;;;;;;;;;;;;;;;;;4982940;28;20360;-76
2022/08/07 09:46:45;;;;;;;;;;;;;;;;;;4997765;28;19971;-76
2022/08/07 09:49:11;;;;;;;;;;;;;;;;;;4985631;28;20343;-75
2022/08/07 09:51:37;;;;;;;;;;;;;;;;;;5058592;28;19908;-76
2022/08/07 09:54:02;;;;;;;;;;;;;;;;;;5062421;28;20578;-76
2022/08/07 09:56:27;;;;;;;;;;;;;;;;;;5064025;28;19967;-76
2022/08/07 09:58:52;;;;;;;;;;;;;;;;;;5065901;28;19905;-76
2022/08/07 10:01:17;;;;;;;;;;;;;;;;;;5063670;28;20184;-76
2022/08/07 10:03:43;;;;;;;;;;;;;;;;;;5048858;28;19963;-75
2022/08/07 10:06:08;;;;;;;;;;;;;;;;;;5047288;28;19909;-76
2022/08/07 10:08:33;;;;;;;;;;;;;;;;;;5049307;28;19908;-75
2022/08/07 10:10:58;;;;;;;;;;;;;;;;;;5037573;28;19995;-76
2022/08/07 10:13:23;;;;;;;;;;;;;;;;;;5052304;28;19919;-76
2022/08/07 10:15:48;;;;;;;;;;;;;;;;;;5051205;28;20015;-75
2022/08/07 10:18:13;;;;;;;;;;;;;;;;;;5018933;28;19916;-76
2022/08/07 10:20:39;;;;;;;;;;;;;;;;;;5047100;28;19909;-75
2022/08/07 10:23:04;;;;;;;;;;;;;;;;;;5027344;28;19913;-75
2022/08/07 10:25:29;;;;;;;;;;;;;;;;;;5032346;28;19909;-76
2022/08/07 10:27:54;;;;;;;;;;;;;;;;;;5052606;28;19912;-75
2022/08/07 10:30:19;;;;;;;;;;;;;;;;;;5032370;28;19913;-76
2022/08/07 10:32:45;;;;;;;;;;;;;;;;;;5051002;28;19909;-76
2022/08/07 10:35:10;;;;;;;;;;;;;;;;;;5034147;28;20359;-75
2022/08/07 10:37:35;;;;;;;;;;;;;;;;;;5033179;28;19992;-75
2022/08/07 10:40:01;;;;;;;;;;;;;;;;;;5050015;28;19909;-76
2022/08/07 10:42:26;;;;;;;;;;;;;;;;;;5047018;28;19916;-75
2022/08/07 10:44:51;;;;;;;;;;;;;;;;;;5034769;28;20279;-77
2022/08/07 10:47:16;;;;;;;;;;;;;;;;;;5031434;28;20324;-76
2022/08/07 10:49:42;;;;;;;;;;;;;;;;;;5029857;28;19908;-76
2022/08/07 10:52:07;;;;;;;;;;;;;;;;;;5030048;28;19909;-77
2022/08/07 10:54:32;;;;;;;;;;;;;;;;;;5042706;28;19913;-76
2022/08/07 10:56:57;;;;;;;;;;;;;;;;;;5024623;28;20397;-76
2022/08/07 10:59:22;;;;;;;;;;;;;;;;;;5042233;28;20290;-76
2022/08/07 11:01:47;;;;;;;;;;;;;;;;;;5025154;28;20430;-76
2022/08/07 11:04:12;;;;;;;;;;;;;;;;;;5039530;28;19920;-76
2022/08/07 11:06:39;;;;;;;;;;;;;;;;;;5023034;28;19913;-77
2022/08/07 11:09:05;;;;;;;;;;;;;;;;;;5046583;28;19931;-77
2022/08/07 11:11:30;;;;;;;;;;;;;;;;;;5044704;28;19943;-77
2022/08/07 11:13:55;;;;;;;;;;;;;;;;;;5050408;28;19912;-77
2022/08/07 11:16:20;;;;;;;;;;;;;;;;;;5050196;28;19908;-77
2022/08/07 11:18:45;;;;;;;;;;;;;;;;;;5052352;28;20370;-77
2022/08/07 11:21:11;;;;;;;;;;;;;;;;;;5050466;28;19932;-77
2022/08/07 11:23:36;;;;;;;;;;;;;;;;;;5050198;28;20279;-77
2022/08/07 11:26:01;;;;;;;;;;;;;;;;;;5049092;28;19998;-77
2022/08/07 11:28:26;;;;;;;;;;;;;;;;;;5034760;28;19905;-77
2022/08/07 11:30:51;;;;;;;;;;;;;;;;;;5033227;28;20359;-77
2022/08/07 11:33:16;;;;;;;;;;;;;;;;;;5028540;28;19913;-77
2022/08/07 11:35:42;;;;;;;;;;;;;;;;;;5023394;28;19959;-77
2022/08/07 11:38:07;;;;;;;;;;;;;;;;;;5020722;28;19913;-77
2022/08/07 11:40:32;;;;;;;;;;;;;;;;;;5044094;28;19909;-77
2022/08/07 11:42:57;;;;;;;;;;;;;;;;;;5039338;28;19908;-76
2022/08/07 11:45:23;;;;;;;;;;;;;;;;;;5040266;28;19908;-77
2022/08/07 11:47:48;;;;;;;;;;;;;;;;;;5041604;28;20187;-77
2022/08/07 11:50:13;;;;;;;;;;;;;;;;;;5039298;28;19920;-77
2022/08/07 11:52:38;;;;;;;;;;;;;;;;;;5020559;28;19909;-77
2022/08/07 11:55:03;;;;;;;;;;;;;;;;;;5021231;28;20482;-77
2022/08/07 11:57:29;;;;;;;;;;;;;;;;;;5042481;28;20393;-77
2022/08/07 11:59:54;;;;;;;;;;;;;;;;;;5043078;28;19916;-77
2022/08/07 12:02:19;;;;;;;;;;;;;;;;;;5022076;28;19916;-77
2022/08/07 12:04:44;;;;;;;;;;;;;;;;;;5021789;28;19917;-77
2022/08/07 12:07:09;;;;;;;;;;;;;;;;;;5040679;28;20393;-77
2022/08/07 12:09:34;;;;;;;;;;;;;;;;;;5027117;28;20371;-77
2022/08/07 12:11:59;;;;;;;;;;;;;;;;;;5049064;28;19909;-78
2022/08/07 12:14:26;;;;;;;;;;;;;;;;;;5050467;28;20260;-76
2022/08/07 12:16:51;;;;;;;;;;;;;;;;;;5033649;28;19909;-78
2022/08/07 12:19:17;;;;;;;;;;;;;;;;;;5031483;28;19915;-78
2022/08/07 12:21:42;;;;;;;;;;;;;;;;;;5028241;28;19908;-79
2022/08/07 12:24:08;;;;;;;;;;;;;;;;;;5031744;28;19963;-74
2022/08/07 12:26:33;;;;;;;;;;;;;;;;;;5031141;28;19909;-74
2022/08/07 12:28:58;;;;;;;;;;;;;;;;;;5039901;28;20379;-74
2022/08/07 12:31:23;;;;;;;;;;;;;;;;;;5041474;28;19912;-75
2022/08/07 12:33:49;;;;;;;;;;;;;;;;;;5039263;28;19916;-75
2022/08/07 12:36:14;;;;;;;;;;;;;;;;;;5040230;28;21348;-75
2022/08/07 12:38:39;;;;;;;;;;;;;;;;;;5021192;28;19916;-75
2022/08/07 12:41:04;;;;;;;;;;;;;;;;;;5042290;28;19919;-75
2022/08/07 12:43:30;;;;;;;;;;;;;;;;;;5042484;28;19948;-75
2022/08/07 12:45:55;;;;;;;;;;;;;;;;;;5027451;28;19919;-75
2022/08/07 12:48:20;;;;;;;0.27;0.10;;;;;;;;;;5053494;28;20952;-76
2022/08/07 12:50:55;;;;;;;1.17;0.10;;;;;;;;;;5031898;28;20021;-76
2022/08/07 12:53:34;;;;;;;0.20;0.10;;;;;;;;;;5051451;28;20013;-76
2022/08/07 12:56:22;;;;;;;0.08;0.00;;;;;;;;;;5037288;28;20017;-76
2022/08/07 12:58:48;;;;;;;0.43;0.10;;;;;;;;;;5026835;28;20110;-76
2022/08/07 13:01:20;;;;;;;0.52;0.20;;;;;;;;;;5035682;28;20328;-76
2022/08/07 13:04:15;;;;;;;0.73;0.10;;;;;;;;;;5042643;28;20052;-76
2022/08/07 13:06:48;;;;;;;0.40;0.10;;;;;;;;;;5002277;28;20149;-76
2022/08/07 13:09:29;;;;;;;1.02;0.10;;;;;;;;;;5003202;28;20030;-76
2022/08/07 13:12:13;;;;;;;0.22;0.05;;;;;;;;;;5002575;28;20030;-76
2022/08/07 13:14:41;;;;;;;1.05;0.13;;;;;;;;;;4985189;28;20030;-76
2022/08/07 13:17:11;;;;;;;1.80;0.10;;;;;;;;;;5003099;28;20496;-76
2022/08/07 13:19:49;;;;;;;0.20;0.10;;;;;;;;;;4987042;28;20050;-76
2022/08/07 13:22:32;;;;;;;1.27;0.10;;;;;;;;;;4983582;28;20117;-76
2022/08/07 13:25:07;;;;;;;0.55;0.10;;;;;;;;;;5002118;28;20044;-77
2022/08/07 13:27:35;;;;;;;0.85;0.20;;;;;;;;;;4985731;28;20029;-77
2022/08/07 13:30:03;;;;;;;0.32;0.00;;;;;;;;;;4999460;28;20049;-76
2022/08/07 13:32:31;;;;;;;0.20;0.10;;;;;;;;;;5001780;28;20025;-76
2022/08/07 13:35:02;;;;;;;0.28;0.10;;;;;;;;;;5001636;28;20121;-76
2022/08/07 13:37:32;;;;;;;0.10;0.10;;;;;;;;;;5000433;28;20045;-77
2022/08/07 13:40:13;;;;;;;0.10;0.00;;;;;;;;;;5005725;28;20025;-81
2022/08/07 13:42:39;;;;;;;0.93;0.10;;;;;;;;;;5020809;28;20036;-76
2022/08/07 13:45:08;;;;;;;441.52;409.83;;;;;;;;;;5047557;28;20083;-76
2022/08/07 13:47:35;;;;;;;43.13;38.92;;;;;;;;;;5029240;28;20384;-76
2022/08/07 13:50:01;;;;;;;0.38;0.10;;;;;;;;;;5050712;28;20025;-76
2022/08/07 13:52:29;;;;;;;12.18;7.32;;;;;;;;;;5018414;28;20033;-77
2022/08/07 13:54:55;;;;;;;1.05;0.10;;;;;;;;;;5031546;28;20041;-76
2022/08/07 13:57:24;;;;;;;0.60;0.30;;;;;;;;;;5034323;28;20024;-76
2022/08/07 13:59:51;;;;;;;1.00;0.10;;;;;;;;;;5053897;28;20438;-80
2022/08/07 14:02:25;;;;;;;0.43;0.10;;;;;;;;;;5049228;28;20023;-77
2022/08/07 14:04:53;;;;;;;0.38;0.10;;;;;;;;;;5049979;28;20024;-77
2022/08/07 14:07:20;;;;;;;0.60;0.10;;;;;;;;;;5048799;28;20479;-77
2022/08/07 14:09:46;;;;;;;0.40;0.10;;;;;;;;;;5032038;28;20020;-76
2022/08/07 14:12:34;;;;;;;2.22;0.10;;;;;;;;;;5005398;28;20026;-76
2022/08/07 14:15:01;;;;;;;1.13;0.10;;;;;;;;;;5053182;28;20063;-76
2022/08/07 14:17:28;;;;;;;0.10;0.10;;;;;;;;;;5051286;28;20388;-76
2022/08/07 14:20:09;;;;;;;0.85;0.10;;;;;;;;;;5053266;28;20188;-76
2022/08/07 14:22:36;;;;;;;0.40;0.10;;;;;;;;;;5048932;28;20447;-76
2022/08/07 14:25:07;;;;;;;0.38;0.30;;;;;;;;;;5050885;28;20086;-76
2022/08/07 14:27:35;;;;;;;0.45;0.20;;;;;;;;;;5034885;28;20021;-77
2022/08/07 14:30:06;;;;;;;0.22;0.10;;;;;;;;;;5033559;28;20025;-76
2022/08/07 14:32:36;;;;;;;0.65;0.10;;;;;;;;;;5037957;28;20025;-76
2022/08/07 14:35:02;;;;;;;0.65;0.10;;;;;;;;;;5050342;28;20589;-77
2022/08/07 14:37:27;;;;;;;0.63;0.17;;;;;;;;;;5042095;28;20140;-77
2022/08/07 14:39:53;;;;;;;0.35;0.10;;;;;;;;;;5050753;28;20028;-76
2022/08/07 14:42:22;;;;;;;0.22;0.10;;;;;;;;;;5034668;28;20356;-76
2022/08/07 14:44:50;;;;;;;0.30;0.15;;;;;;;;;;5048643;28;20375;-76
2022/08/07 14:47:17;;;;;;;0.35;0.10;;;;;;;;;;5051999;28;20032;-76
2022/08/07 14:49:44;;;;;;;0.10;0.10;;;;;;;;;;5053214;28;20040;-76
2022/08/07 14:52:09;;;;;;;1.15;0.10;;;;;;;;;;5047610;28;20508;-76
2022/08/07 14:54:36;;;;;;;0.32;0.10;;;;;;;;;;5051044;28;20112;-76
2022/08/07 14:57:02;;;;;;;0.75;0.10;;;;;;;;;;5048345;28;20017;-76
2022/08/07 14:59:30;;;;;;;0.63;0.28;;;;;;;;;;5034479;28;20115;-76
2022/08/07 15:01:57;;;;;;;0.80;0.10;;;;;;;;;;5051935;28;20048;-77
2022/08/07 15:04:23;;;;;;;0.10;0.10;;;;;;;;;;5050207;28;20045;-76
2022/08/07 15:06:49;;;;;;;1.80;0.20;;;;;;;;;;5050091;28;20051;-76
2022/08/07 15:09:16;;;;;;;0.10;0.10;;;;;;;;;;5029688;28;20506;-76
2022/08/07 15:11:59;;;;;;;2.88;0.20;;;;;;;;;;5032921;28;20021;-76
2022/08/07 15:14:25;;;;;;;0.75;0.20;;;;;;;;;;5032929;28;20144;-76